sensor_id;sensor_type;location;lat;lon;timestamp;temperature;humidity
8332;DHT22;4203;48.144;14.118;2024-01-30T00:00:29;-3.80;99.90
8332;DHT22;4203;48.144;14.118;2024-01-30T00:02:56;-3.80;99.90
8332;DHT22;4203;48.144;14.118;2024-01-30T00:05:23;-3.90;99.90
8332;DHT22;4203;48.144;14.118;2024-01-30T00:07:51;-3.80;99.90
8332;DHT22;4203;48.144;14.118;2024-01-30T00:10:18;-3.80;99.90
8332;DHT22;4203;48.144;14.118;2024-01-30T00:12:46;-3.80;99.90
8332;DHT22;4203;48.144;14.118;2024-01-30T00:15:15;-3.80;99.90
8332;DHT22;4203;48.144;14.118;2024-01-30T00:17:42;-3.80;99.90
8332;DHT22;4203;48.144;14.118;2024-01-30T00:20:10;-3.80;99.90
8332;DHT22;4203;48.144;14.118;2024-01-30T00:22:37;-3.80;99.90
8332;DHT22;4203;48.144;14.118;2024-01-30T00:25:05;-3.80;99.90
8332;DHT22;4203;48.144;14.118;2024-01-30T00:27:32;-3.80;99.90
8332;DHT22;4203;48.144;14.118;2024-01-30T00:29:59;-3.80;99.90
8332;DHT22;4203;48.144;14.118;2024-01-30T00:32:28;-3.80;99.90
8332;DHT22;4203;48.144;14.118;2024-01-30T00:34:55;-3.90;99.90
8332;DHT22;4203;48.144;14.118;2024-01-30T00:37:23;-3.90;99.90
8332;DHT22;4203;48.144;14.118;2024-01-30T00:39:50;-3.90;99.90
8332;DHT22;4203;48.144;14.118;2024-01-30T00:42:17;-4.00;99.90
8332;DHT22;4203;48.144;14.118;2024-01-30T00:44:45;-4.00;99.90
8332;DHT22;4203;48.144;14.118;2024-01-30T00:47:12;-4.00;99.90
8332;DHT22;4203;48.144;14.118;2024-01-30T00:49:41;-4.00;99.90
8332;DHT22;4203;48.144;14.118;2024-01-30T00:52:08;-4.00;99.90
8332;DHT22;4203;48.144;14.118;2024-01-30T00:54:35;-4.00;99.90
8332;DHT22;4203;48.144;14.118;2024-01-30T00:57:03;-4.00;99.90
8332;DHT22;4203;48.144;14.118;2024-01-30T00:59:30;-4.00;99.90
8332;DHT22;4203;48.144;14.118;2024-01-30T01:01:57;-4.00;99.90
8332;DHT22;4203;48.144;14.118;2024-01-30T01:04:25;-4.00;99.90
8332;DHT22;4203;48.144;14.118;2024-01-30T01:06:53;-5.50;99.90
8332;DHT22;4203;48.144;14.118;2024-01-30T01:09:21;-4.10;99.90
8332;DHT22;4203;48.144;14.118;2024-01-30T01:11:48;-4.10;99.90
8332;DHT22;4203;48.144;14.118;2024-01-30T01:14:15;-4.10;99.90
8332;DHT22;4203;48.144;14.118;2024-01-30T01:16:42;-4.10;99.90
8332;DHT22;4203;48.144;14.118;2024-01-30T01:19:10;-4.10;99.90
8332;DHT22;4203;48.144;14.118;2024-01-30T01:21:37;-4.20;99.90
8332;DHT22;4203;48.144;14.118;2024-01-30T01:24:06;-4.10;99.90
8332;DHT22;4203;48.144;14.118;2024-01-30T01:26:33;-4.10;99.90
8332;DHT22;4203;48.144;14.118;2024-01-30T01:29:00;-4.10;99.90
8332;DHT22;4203;48.144;14.118;2024-01-30T01:31:30;-4.10;99.90
8332;DHT22;4203;48.144;14.118;2024-01-30T01:33:57;-4.20;99.90
8332;DHT22;4203;48.144;14.118;2024-01-30T01:36:24;-4.20;99.90
8332;DHT22;4203;48.144;14.118;2024-01-30T01:38:51;-4.20;99.90
8332;DHT22;4203;48.144;14.118;2024-01-30T01:41:20;-4.10;99.90
8332;DHT22;4203;48.144;14.118;2024-01-30T01:43:47;-4.10;99.90
8332;DHT22;4203;48.144;14.118;2024-01-30T01:46:14;-4.20;99.90
8332;DHT22;4203;48.144;14.118;2024-01-30T01:48:42;-4.20;99.90
8332;DHT22;4203;48.144;14.118;2024-01-30T01:51:10;-4.30;99.90
8332;DHT22;4203;48.144;14.118;2024-01-30T01:53:37;-4.20;99.90
8332;DHT22;4203;48.144;14.118;2024-01-30T01:56:06;-4.30;99.90
8332;DHT22;4203;48.144;14.118;2024-01-30T01:58:35;-4.30;99.90
8332;DHT22;4203;48.144;14.118;2024-01-30T02:01:04;-4.30;99.90
8332;DHT22;4203;48.144;14.118;2024-01-30T02:03:31;-4.30;99.90
8332;DHT22;4203;48.144;14.118;2024-01-30T02:05:59;-4.30;99.90
8332;DHT22;4203;48.144;14.118;2024-01-30T02:08:26;-4.30;99.90
8332;DHT22;4203;48.144;14.118;2024-01-30T02:10:53;-4.30;99.90
8332;DHT22;4203;48.144;14.118;2024-01-30T02:13:21;-4.30;99.90
8332;DHT22;4203;48.144;14.118;2024-01-30T02:15:51;-4.30;99.90
8332;DHT22;4203;48.144;14.118;2024-01-30T02:18:20;-4.30;99.90
8332;DHT22;4203;48.144;14.118;2024-01-30T02:20:47;-4.40;99.90
8332;DHT22;4203;48.144;14.118;2024-01-30T02:23:16;-4.40;99.90
8332;DHT22;4203;48.144;14.118;2024-01-30T02:25:43;-4.50;99.90
8332;DHT22;4203;48.144;14.118;2024-01-30T02:28:11;-4.50;99.90
8332;DHT22;4203;48.144;14.118;2024-01-30T02:30:39;-4.50;99.90
8332;DHT22;4203;48.144;14.118;2024-01-30T02:33:06;-4.40;99.90
8332;DHT22;4203;48.144;14.118;2024-01-30T02:35:33;-4.40;99.90
8332;DHT22;4203;48.144;14.118;2024-01-30T02:38:01;-4.40;99.90
8332;DHT22;4203;48.144;14.118;2024-01-30T02:40:29;-4.40;99.90
8332;DHT22;4203;48.144;14.118;2024-01-30T02:42:57;-4.40;99.90
8332;DHT22;4203;48.144;14.118;2024-01-30T02:45:24;-4.40;99.90
8332;DHT22;4203;48.144;14.118;2024-01-30T02:47:52;-4.40;99.90
8332;DHT22;4203;48.144;14.118;2024-01-30T02:50:19;-4.50;99.90
8332;DHT22;4203;48.144;14.118;2024-01-30T02:52:46;-4.50;99.90
8332;DHT22;4203;48.144;14.118;2024-01-30T02:55:14;-4.50;99.90
8332;DHT22;4203;48.144;14.118;2024-01-30T02:57:44;-4.50;99.90
8332;DHT22;4203;48.144;14.118;2024-01-30T03:00:12;-4.50;99.90
8332;DHT22;4203;48.144;14.118;2024-01-30T03:02:40;-4.50;99.90
8332;DHT22;4203;48.144;14.118;2024-01-30T03:05:08;-4.50;99.90
8332;DHT22;4203;48.144;14.118;2024-01-30T03:07:35;-4.50;99.90
8332;DHT22;4203;48.144;14.118;2024-01-30T03:10:04;-4.50;99.90
8332;DHT22;4203;48.144;14.118;2024-01-30T03:12:31;-4.50;99.90
8332;DHT22;4203;48.144;14.118;2024-01-30T03:15:00;-4.40;99.90
8332;DHT22;4203;48.144;14.118;2024-01-30T03:17:27;-4.40;99.90
8332;DHT22;4203;48.144;14.118;2024-01-30T03:19:54;-4.40;99.90
8332;DHT22;4203;48.144;14.118;2024-01-30T03:22:22;-4.40;99.90
8332;DHT22;4203;48.144;14.118;2024-01-30T03:24:49;-4.40;99.90
8332;DHT22;4203;48.144;14.118;2024-01-30T03:27:16;-4.40;99.90
8332;DHT22;4203;48.144;14.118;2024-01-30T03:29:43;-4.50;99.90
8332;DHT22;4203;48.144;14.118;2024-01-30T03:32:12;-4.50;99.90
8332;DHT22;4203;48.144;14.118;2024-01-30T03:34:40;-4.50;99.90
8332;DHT22;4203;48.144;14.118;2024-01-30T03:37:07;-4.40;99.90
8332;DHT22;4203;48.144;14.118;2024-01-30T03:39:34;-4.40;99.90
8332;DHT22;4203;48.144;14.118;2024-01-30T03:42:02;-4.50;99.90
8332;DHT22;4203;48.144;14.118;2024-01-30T03:44:30;-4.50;99.90
8332;DHT22;4203;48.144;14.118;2024-01-30T03:46:57;-4.50;99.90
8332;DHT22;4203;48.144;14.118;2024-01-30T03:49:25;-4.50;99.90
8332;DHT22;4203;48.144;14.118;2024-01-30T03:51:53;-4.50;99.90
8332;DHT22;4203;48.144;14.118;2024-01-30T03:54:20;-4.50;99.90
8332;DHT22;4203;48.144;14.118;2024-01-30T03:56:47;-4.50;99.90
8332;DHT22;4203;48.144;14.118;2024-01-30T03:59:14;-4.40;99.90
8332;DHT22;4203;48.144;14.118;2024-01-30T04:01:42;-4.40;99.90
8332;DHT22;4203;48.144;14.118;2024-01-30T04:04:09;-4.40;99.90
8332;DHT22;4203;48.144;14.118;2024-01-30T04:06:37;-4.30;99.90
8332;DHT22;4203;48.144;14.118;2024-01-30T04:09:05;-4.30;99.90
8332;DHT22;4203;48.144;14.118;2024-01-30T04:11:32;-4.30;99.90
8332;DHT22;4203;48.144;14.118;2024-01-30T04:13:59;-4.20;99.90
8332;DHT22;4203;48.144;14.118;2024-01-30T04:16:26;-4.20;99.90
8332;DHT22;4203;48.144;14.118;2024-01-30T04:18:53;-4.10;99.90
8332;DHT22;4203;48.144;14.118;2024-01-30T04:21:21;-4.10;99.90
8332;DHT22;4203;48.144;14.118;2024-01-30T04:23:51;-4.10;99.90
8332;DHT22;4203;48.144;14.118;2024-01-30T04:26:18;-4.10;99.90
8332;DHT22;4203;48.144;14.118;2024-01-30T04:28:45;-4.10;99.90
8332;DHT22;4203;48.144;14.118;2024-01-30T04:31:12;-4.00;99.90
8332;DHT22;4203;48.144;14.118;2024-01-30T04:33:40;-4.00;99.90
8332;DHT22;4203;48.144;14.118;2024-01-30T04:36:09;-4.00;99.90
8332;DHT22;4203;48.144;14.118;2024-01-30T04:38:37;-4.00;99.90
8332;DHT22;4203;48.144;14.118;2024-01-30T04:41:05;-3.90;99.90
8332;DHT22;4203;48.144;14.118;2024-01-30T04:43:33;-3.90;99.90
8332;DHT22;4203;48.144;14.118;2024-01-30T04:46:00;-3.80;99.90
8332;DHT22;4203;48.144;14.118;2024-01-30T04:48:27;-3.80;99.90
8332;DHT22;4203;48.144;14.118;2024-01-30T04:50:54;-3.80;99.90
8332;DHT22;4203;48.144;14.118;2024-01-30T04:53:22;-3.80;99.90
8332;DHT22;4203;48.144;14.118;2024-01-30T04:55:49;-3.70;99.90
8332;DHT22;4203;48.144;14.118;2024-01-30T04:58:17;-3.70;99.90
8332;DHT22;4203;48.144;14.118;2024-01-30T05:00:45;-3.70;99.90
8332;DHT22;4203;48.144;14.118;2024-01-30T05:03:17;-3.70;99.90
8332;DHT22;4203;48.144;14.118;2024-01-30T05:05:44;-3.70;99.90
8332;DHT22;4203;48.144;14.118;2024-01-30T05:08:11;-3.70;99.90
8332;DHT22;4203;48.144;14.118;2024-01-30T05:10:38;-3.60;99.90
8332;DHT22;4203;48.144;14.118;2024-01-30T05:13:06;-3.60;99.90
8332;DHT22;4203;48.144;14.118;2024-01-30T05:15:34;-3.60;99.90
8332;DHT22;4203;48.144;14.118;2024-01-30T05:18:01;-3.60;99.90
8332;DHT22;4203;48.144;14.118;2024-01-30T05:20:29;-3.60;99.90
8332;DHT22;4203;48.144;14.118;2024-01-30T05:22:56;-3.50;99.90
8332;DHT22;4203;48.144;14.118;2024-01-30T05:25:23;-3.50;99.90
8332;DHT22;4203;48.144;14.118;2024-01-30T05:27:50;-3.50;99.90
8332;DHT22;4203;48.144;14.118;2024-01-30T05:30:17;-3.50;99.90
8332;DHT22;4203;48.144;14.118;2024-01-30T05:32:46;-3.50;99.90
8332;DHT22;4203;48.144;14.118;2024-01-30T05:35:13;-3.40;99.90
8332;DHT22;4203;48.144;14.118;2024-01-30T05:37:41;-3.40;99.90
8332;DHT22;4203;48.144;14.118;2024-01-30T05:40:09;-3.40;99.90
8332;DHT22;4203;48.144;14.118;2024-01-30T05:42:36;-3.40;99.90
8332;DHT22;4203;48.144;14.118;2024-01-30T05:45:04;-3.40;99.90
8332;DHT22;4203;48.144;14.118;2024-01-30T05:47:31;-3.40;99.90
8332;DHT22;4203;48.144;14.118;2024-01-30T05:50:00;-3.40;99.90
8332;DHT22;4203;48.144;14.118;2024-01-30T05:52:27;-3.40;99.90
8332;DHT22;4203;48.144;14.118;2024-01-30T05:54:54;-3.40;99.90
8332;DHT22;4203;48.144;14.118;2024-01-30T05:57:22;-3.40;99.90
8332;DHT22;4203;48.144;14.118;2024-01-30T05:59:49;-3.30;99.90
8332;DHT22;4203;48.144;14.118;2024-01-30T06:02:17;-3.30;99.90
8332;DHT22;4203;48.144;14.118;2024-01-30T06:04:44;-3.20;99.90
8332;DHT22;4203;48.144;14.118;2024-01-30T06:07:13;-3.20;99.90
8332;DHT22;4203;48.144;14.118;2024-01-30T06:09:40;-3.10;99.90
8332;DHT22;4203;48.144;14.118;2024-01-30T06:12:08;-3.10;99.90
8332;DHT22;4203;48.144;14.118;2024-01-30T06:14:37;-3.10;99.90
8332;DHT22;4203;48.144;14.118;2024-01-30T06:17:04;-3.10;99.90
8332;DHT22;4203;48.144;14.118;2024-01-30T06:19:31;-3.00;99.90
8332;DHT22;4203;48.144;14.118;2024-01-30T06:21:59;-3.00;99.90
8332;DHT22;4203;48.144;14.118;2024-01-30T06:24:27;-2.90;99.90
8332;DHT22;4203;48.144;14.118;2024-01-30T06:26:54;-2.90;99.90
8332;DHT22;4203;48.144;14.118;2024-01-30T06:29:22;-2.80;99.90
8332;DHT22;4203;48.144;14.118;2024-01-30T06:31:50;-2.80;99.90
8332;DHT22;4203;48.144;14.118;2024-01-30T06:34:17;-2.80;99.90
8332;DHT22;4203;48.144;14.118;2024-01-30T06:36:44;-2.80;99.90
8332;DHT22;4203;48.144;14.118;2024-01-30T06:39:11;-2.80;99.90
8332;DHT22;4203;48.144;14.118;2024-01-30T06:41:40;-2.70;99.90
8332;DHT22;4203;48.144;14.118;2024-01-30T06:44:07;-2.70;99.90
8332;DHT22;4203;48.144;14.118;2024-01-30T06:46:34;-3.70;99.90
8332;DHT22;4203;48.144;14.118;2024-01-30T06:49:02;-2.70;99.90
8332;DHT22;4203;48.144;14.118;2024-01-30T06:51:30;-2.70;99.90
8332;DHT22;4203;48.144;14.118;2024-01-30T06:53:57;-2.80;99.90
8332;DHT22;4203;48.144;14.118;2024-01-30T06:56:24;-2.80;99.90
8332;DHT22;4203;48.144;14.118;2024-01-30T06:58:52;-2.80;99.90
8332;DHT22;4203;48.144;14.118;2024-01-30T07:01:20;-2.70;99.90
8332;DHT22;4203;48.144;14.118;2024-01-30T07:03:47;-2.80;99.90
8332;DHT22;4203;48.144;14.118;2024-01-30T07:06:14;-2.80;99.90
8332;DHT22;4203;48.144;14.118;2024-01-30T07:08:41;-2.80;99.90
8332;DHT22;4203;48.144;14.118;2024-01-30T07:11:08;-2.80;99.90
8332;DHT22;4203;48.144;14.118;2024-01-30T07:13:38;-2.80;99.90
8332;DHT22;4203;48.144;14.118;2024-01-30T07:16:07;-2.80;99.90
8332;DHT22;4203;48.144;14.118;2024-01-30T07:18:34;-2.70;99.90
8332;DHT22;4203;48.144;14.118;2024-01-30T07:21:01;-2.80;99.90
8332;DHT22;4203;48.144;14.118;2024-01-30T07:23:28;-2.70;99.90
8332;DHT22;4203;48.144;14.118;2024-01-30T07:25:55;-2.60;99.90
8332;DHT22;4203;48.144;14.118;2024-01-30T07:28:23;-2.60;99.90
8332;DHT22;4203;48.144;14.118;2024-01-30T07:30:50;-2.50;99.90
8332;DHT22;4203;48.144;14.118;2024-01-30T07:33:18;-2.50;99.90
8332;DHT22;4203;48.144;14.118;2024-01-30T07:35:46;-2.60;99.90
8332;DHT22;4203;48.144;14.118;2024-01-30T07:38:13;-2.60;99.90
8332;DHT22;4203;48.144;14.118;2024-01-30T07:40:40;-2.50;99.90
8332;DHT22;4203;48.144;14.118;2024-01-30T07:43:07;-2.50;99.90
8332;DHT22;4203;48.144;14.118;2024-01-30T07:45:35;-2.30;99.90
8332;DHT22;4203;48.144;14.118;2024-01-30T07:48:04;-2.30;99.90
8332;DHT22;4203;48.144;14.118;2024-01-30T07:50:33;-2.20;99.90
8332;DHT22;4203;48.144;14.118;2024-01-30T07:53:00;-2.10;99.90
8332;DHT22;4203;48.144;14.118;2024-01-30T07:55:49;-2.10;99.90
8332;DHT22;4203;48.144;14.118;2024-01-30T07:58:16;-2.00;99.90
8332;DHT22;4203;48.144;14.118;2024-01-30T08:00:43;-1.90;99.90
8332;DHT22;4203;48.144;14.118;2024-01-30T08:03:10;-1.90;99.90
8332;DHT22;4203;48.144;14.118;2024-01-30T08:05:39;-1.90;99.90
8332;DHT22;4203;48.144;14.118;2024-01-30T08:08:06;-1.80;99.90
8332;DHT22;4203;48.144;14.118;2024-01-30T08:10:34;-1.80;99.90
8332;DHT22;4203;48.144;14.118;2024-01-30T08:13:01;-1.80;99.90
8332;DHT22;4203;48.144;14.118;2024-01-30T08:15:28;-1.80;99.90
8332;DHT22;4203;48.144;14.118;2024-01-30T08:17:55;-1.70;99.90
8332;DHT22;4203;48.144;14.118;2024-01-30T08:20:24;-1.70;99.90
8332;DHT22;4203;48.144;14.118;2024-01-30T08:22:53;-1.70;99.90
8332;DHT22;4203;48.144;14.118;2024-01-30T08:25:20;-1.60;99.90
8332;DHT22;4203;48.144;14.118;2024-01-30T08:27:47;-1.70;99.90
8332;DHT22;4203;48.144;14.118;2024-01-30T08:30:15;-1.70;99.90
8332;DHT22;4203;48.144;14.118;2024-01-30T08:32:42;-1.70;99.90
8332;DHT22;4203;48.144;14.118;2024-01-30T08:35:09;-1.70;99.90
8332;DHT22;4203;48.144;14.118;2024-01-30T08:37:39;-1.80;99.90
8332;DHT22;4203;48.144;14.118;2024-01-30T08:40:09;-1.70;99.90
8332;DHT22;4203;48.144;14.118;2024-01-30T08:42:36;-1.80;99.90
8332;DHT22;4203;48.144;14.118;2024-01-30T08:45:04;-1.70;99.90
8332;DHT22;4203;48.144;14.118;2024-01-30T08:47:31;-1.70;99.90
8332;DHT22;4203;48.144;14.118;2024-01-30T08:49:59;-1.60;99.90
8332;DHT22;4203;48.144;14.118;2024-01-30T08:52:26;-1.60;99.90
8332;DHT22;4203;48.144;14.118;2024-01-30T08:54:53;-1.60;99.90
8332;DHT22;4203;48.144;14.118;2024-01-30T08:57:22;-1.60;99.90
8332;DHT22;4203;48.144;14.118;2024-01-30T08:59:49;-1.50;99.90
8332;DHT22;4203;48.144;14.118;2024-01-30T09:02:16;-1.50;99.90
8332;DHT22;4203;48.144;14.118;2024-01-30T09:04:44;-1.40;99.90
8332;DHT22;4203;48.144;14.118;2024-01-30T09:07:11;-1.40;99.90
8332;DHT22;4203;48.144;14.118;2024-01-30T09:09:39;-1.40;99.90
8332;DHT22;4203;48.144;14.118;2024-01-30T09:12:07;-1.40;99.90
8332;DHT22;4203;48.144;14.118;2024-01-30T09:14:39;-1.50;99.90
8332;DHT22;4203;48.144;14.118;2024-01-30T09:17:06;-1.40;99.90
8332;DHT22;4203;48.144;14.118;2024-01-30T09:19:33;-1.40;99.90
8332;DHT22;4203;48.144;14.118;2024-01-30T09:22:01;-1.30;99.90
8332;DHT22;4203;48.144;14.118;2024-01-30T09:24:28;-1.20;99.90
8332;DHT22;4203;48.144;14.118;2024-01-30T09:26:55;-1.10;99.90
8332;DHT22;4203;48.144;14.118;2024-01-30T09:29:29;-1.10;99.90
8332;DHT22;4203;48.144;14.118;2024-01-30T09:31:58;-1.00;99.90
8332;DHT22;4203;48.144;14.118;2024-01-30T09:34:25;-1.20;99.90
8332;DHT22;4203;48.144;14.118;2024-01-30T21:38:51;-2.20;99.90
8332;DHT22;4203;48.144;14.118;2024-01-30T21:41:27;-2.20;99.90
8332;DHT22;4203;48.144;14.118;2024-01-30T21:49:52;-1.90;99.90
8332;DHT22;4203;48.144;14.118;2024-01-30T21:52:40;-2.90;99.90
8332;DHT22;4203;48.144;14.118;2024-01-30T22:05:20;-2.50;99.90
8332;DHT22;4203;48.144;14.118;2024-01-30T22:08:22;-2.30;99.90
8332;DHT22;4203;48.144;14.118;2024-01-30T22:10:51;-1.80;99.90
8332;DHT22;4203;48.144;14.118;2024-01-30T22:13:18;-1.90;99.90
8332;DHT22;4203;48.144;14.118;2024-01-30T22:15:47;-1.80;99.90
8332;DHT22;4203;48.144;14.118;2024-01-30T22:18:24;-1.90;99.90
8332;DHT22;4203;48.144;14.118;2024-01-30T22:20:51;-2.20;99.90
8332;DHT22;4203;48.144;14.118;2024-01-30T22:23:19;-2.30;99.90
8332;DHT22;4203;48.144;14.118;2024-01-30T22:25:46;-2.30;99.90
8332;DHT22;4203;48.144;14.118;2024-01-30T22:28:16;-2.30;99.90
8332;DHT22;4203;48.144;14.118;2024-01-30T22:30:43;-2.30;99.90
8332;DHT22;4203;48.144;14.118;2024-01-30T22:33:11;-2.30;99.90
8332;DHT22;4203;48.144;14.118;2024-01-30T22:35:38;-2.40;99.90
8332;DHT22;4203;48.144;14.118;2024-01-30T22:38:06;-2.40;99.90
8332;DHT22;4203;48.144;14.118;2024-01-30T22:40:34;-2.40;99.90
8332;DHT22;4203;48.144;14.118;2024-01-30T22:43:02;-2.40;99.90
8332;DHT22;4203;48.144;14.118;2024-01-30T22:45:31;-2.40;99.90
8332;DHT22;4203;48.144;14.118;2024-01-30T22:48:00;-2.20;99.90
8332;DHT22;4203;48.144;14.118;2024-01-30T22:50:27;-2.10;99.90
8332;DHT22;4203;48.144;14.118;2024-01-30T22:52:54;-2.10;99.90
8332;DHT22;4203;48.144;14.118;2024-01-30T22:55:21;-2.00;99.90
8332;DHT22;4203;48.144;14.118;2024-01-30T22:57:49;-2.10;99.90
8332;DHT22;4203;48.144;14.118;2024-01-30T23:00:19;-2.20;99.90
8332;DHT22;4203;48.144;14.118;2024-01-30T23:02:53;-2.10;99.90
8332;DHT22;4203;48.144;14.118;2024-01-30T23:05:20;-2.10;99.90
8332;DHT22;4203;48.144;14.118;2024-01-30T23:07:47;-2.10;99.90
8332;DHT22;4203;48.144;14.118;2024-01-30T23:10:15;-2.00;99.90
8332;DHT22;4203;48.144;14.118;2024-01-30T23:12:43;-2.00;99.90
8332;DHT22;4203;48.144;14.118;2024-01-30T23:15:10;-1.90;99.90
8332;DHT22;4203;48.144;14.118;2024-01-30T23:17:39;-1.90;99.90
8332;DHT22;4203;48.144;14.118;2024-01-30T23:20:09;-1.90;99.90
8332;DHT22;4203;48.144;14.118;2024-01-30T23:22:37;-1.80;99.90
8332;DHT22;4203;48.144;14.118;2024-01-30T23:25:05;-1.80;99.90
8332;DHT22;4203;48.144;14.118;2024-01-30T23:27:33;-1.80;99.90
8332;DHT22;4203;48.144;14.118;2024-01-30T23:30:02;-1.80;99.90
8332;DHT22;4203;48.144;14.118;2024-01-30T23:32:29;-1.80;99.90
8332;DHT22;4203;48.144;14.118;2024-01-30T23:34:56;-1.80;99.90
8332;DHT22;4203;48.144;14.118;2024-01-30T23:37:27;-1.90;99.90
8332;DHT22;4203;48.144;14.118;2024-01-30T23:39:54;-1.90;99.90
8332;DHT22;4203;48.144;14.118;2024-01-30T23:42:21;-1.90;99.90
8332;DHT22;4203;48.144;14.118;2024-01-30T23:44:48;-1.90;99.90
8332;DHT22;4203;48.144;14.118;2024-01-30T23:47:16;-1.80;99.90
8332;DHT22;4203;48.144;14.118;2024-01-30T23:49:43;-1.90;99.90
8332;DHT22;4203;48.144;14.118;2024-01-30T23:52:12;-2.10;99.90
8332;DHT22;4203;48.144;14.118;2024-01-30T23:54:40;-2.10;99.90
8332;DHT22;4203;48.144;14.118;2024-01-30T23:57:09;-2.10;99.90
8332;DHT22;4203;48.144;14.118;2024-01-30T23:59:36;-2.10;99.90
